sensor_id;sensor_type;location;lat;lon;timestamp;pressure;altitude;pressure_sealevel;temperature;humidity
5574;BME280;2563;52.242;7.956;2023-01-25T00:00:45;101143.41;;;-0.37;100.00
5574;BME280;2563;52.242;7.956;2023-01-25T00:03:11;101143.41;;;-0.37;100.00
5574;BME280;2563;52.242;7.956;2023-01-25T00:05:36;101140.81;;;-0.40;100.00
5574;BME280;2563;52.242;7.956;2023-01-25T00:08:01;101139.91;;;-0.42;100.00
5574;BME280;2563;52.242;7.956;2023-01-25T00:10:27;101139.97;;;-0.40;100.00
5574;BME280;2563;52.242;7.956;2023-01-25T00:12:52;101143.25;;;-0.43;100.00
5574;BME280;2563;52.242;7.956;2023-01-25T00:15:17;101139.81;;;-0.45;100.00
5574;BME280;2563;52.242;7.956;2023-01-25T00:17:43;101133.13;;;-0.43;100.00
5574;BME280;2563;52.242;7.956;2023-01-25T00:20:09;101128.09;;;-0.43;100.00
5574;BME280;2563;52.242;7.956;2023-01-25T00:22:34;101118.97;;;-0.38;100.00
5574;BME280;2563;52.242;7.956;2023-01-25T00:25:00;101117.19;;;-0.40;100.00
5574;BME280;2563;52.242;7.956;2023-01-25T00:27:25;101117.22;;;-0.39;100.00
5574;BME280;2563;52.242;7.956;2023-01-25T00:29:53;101105.47;;;-0.37;100.00
5574;BME280;2563;52.242;7.956;2023-01-25T00:34:50;101104.50;;;-0.42;100.00
5574;BME280;2563;52.242;7.956;2023-01-25T00:37:36;101106.03;;;-0.47;100.00
5574;BME280;2563;52.242;7.956;2023-01-25T00:40:03;101105.84;;;-0.53;100.00
5574;BME280;2563;52.242;7.956;2023-01-25T00:42:29;101113.34;;;-0.56;100.00
5574;BME280;2563;52.242;7.956;2023-01-25T00:44:54;101117.53;;;-0.57;100.00
5574;BME280;2563;52.242;7.956;2023-01-25T00:47:19;101115.94;;;-0.53;100.00
5574;BME280;2563;52.242;7.956;2023-01-25T00:49:45;101117.69;;;-0.52;100.00
5574;BME280;2563;52.242;7.956;2023-01-25T00:52:11;101114.38;;;-0.50;100.00
5574;BME280;2563;52.242;7.956;2023-01-25T00:54:37;101115.16;;;-0.52;100.00
5574;BME280;2563;52.242;7.956;2023-01-25T00:57:03;101117.63;;;-0.54;100.00
5574;BME280;2563;52.242;7.956;2023-01-25T00:59:29;101110.19;;;-0.49;100.00
5574;BME280;2563;52.242;7.956;2023-01-25T01:01:55;101106.88;;;-0.47;100.00
5574;BME280;2563;52.242;7.956;2023-01-25T01:04:21;101108.66;;;-0.44;100.00
5574;BME280;2563;52.242;7.956;2023-01-25T01:06:49;101093.47;;;-0.44;100.00
5574;BME280;2563;52.242;7.956;2023-01-25T01:09:17;101098.53;;;-0.44;100.00
5574;BME280;2563;52.242;7.956;2023-01-25T01:11:43;101100.91;;;-0.50;100.00
5574;BME280;2563;52.242;7.956;2023-01-25T01:14:09;101093.41;;;-0.47;100.00
5574;BME280;2563;52.242;7.956;2023-01-25T01:16:34;101094.31;;;-0.45;100.00
5574;BME280;2563;52.242;7.956;2023-01-25T01:19:00;101090.88;;;-0.46;100.00
5574;BME280;2563;52.242;7.956;2023-01-25T01:21:25;101099.09;;;-0.53;100.00
5574;BME280;2563;52.242;7.956;2023-01-25T01:23:53;101092.25;;;-0.57;100.00
5574;BME280;2563;52.242;7.956;2023-01-25T01:26:18;101095.59;;;-0.58;100.00
5574;BME280;2563;52.242;7.956;2023-01-25T01:28:44;101093.13;;;-0.56;100.00
5574;BME280;2563;52.242;7.956;2023-01-25T01:31:18;101088.84;;;-0.59;100.00
5574;BME280;2563;52.242;7.956;2023-01-25T01:33:43;101096.34;;;-0.60;100.00
5574;BME280;2563;52.242;7.956;2023-01-25T01:36:14;101093.03;;;-0.59;100.00
5574;BME280;2563;52.242;7.956;2023-01-25T01:38:40;101094.66;;;-0.61;100.00
5574;BME280;2563;52.242;7.956;2023-01-25T01:41:06;101093.13;;;-0.56;100.00
5574;BME280;2563;52.242;7.956;2023-01-25T01:43:32;101090.53;;;-0.58;100.00
5574;BME280;2563;52.242;7.956;2023-01-25T01:45:59;101096.97;;;-0.69;100.00
5574;BME280;2563;52.242;7.956;2023-01-25T01:48:48;101099.50;;;-0.68;100.00
5574;BME280;2563;52.242;7.956;2023-01-25T01:54:06;101076.31;;;-0.54;100.00
5574;BME280;2563;52.242;7.956;2023-01-25T01:56:39;101068.75;;;-0.53;100.00
5574;BME280;2563;52.242;7.956;2023-01-25T01:59:08;101063.81;;;-0.50;100.00
5574;BME280;2563;52.242;7.956;2023-01-25T02:01:34;101077.94;;;-0.56;100.00
5574;BME280;2563;52.242;7.956;2023-01-25T02:04:00;101076.13;;;-0.60;100.00
5574;BME280;2563;52.242;7.956;2023-01-25T02:06:43;101071.97;;;-0.58;100.00
5574;BME280;2563;52.242;7.956;2023-01-25T02:09:10;101077.88;;;-0.59;100.00
5574;BME280;2563;52.242;7.956;2023-01-25T02:11:36;101079.50;;;-0.60;100.00
5574;BME280;2563;52.242;7.956;2023-01-25T02:14:02;101080.41;;;-0.58;100.00
5574;BME280;2563;52.242;7.956;2023-01-25T02:16:28;101082.91;;;-0.59;100.00
5574;BME280;2563;52.242;7.956;2023-01-25T02:18:55;101081.31;;;-0.57;100.00
5574;BME280;2563;52.242;7.956;2023-01-25T02:21:23;101076.13;;;-0.60;100.00
5574;BME280;2563;52.242;7.956;2023-01-25T02:26:23;101086.88;;;-0.68;100.00
5574;BME280;2563;52.242;7.956;2023-01-25T02:28:53;101077.66;;;-0.66;100.00
5574;BME280;2563;52.242;7.956;2023-01-25T02:31:19;101080.13;;;-0.69;100.00
5574;BME280;2563;52.242;7.956;2023-01-25T02:33:45;101069.94;;;-0.70;100.00
5574;BME280;2563;52.242;7.956;2023-01-25T02:38:41;101068.28;;;-0.70;100.00
5574;BME280;2563;52.242;7.956;2023-01-25T02:41:17;101058.97;;;-0.71;100.00
5574;BME280;2563;52.242;7.956;2023-01-25T02:43:45;101048.94;;;-0.69;100.00
5574;BME280;2563;52.242;7.956;2023-01-25T02:46:16;101038.13;;;-0.63;100.00
5574;BME280;2563;52.242;7.956;2023-01-25T02:48:45;101037.28;;;-0.64;100.00
5574;BME280;2563;52.242;7.956;2023-01-25T02:51:11;101044.00;;;-0.65;100.00
5574;BME280;2563;52.242;7.956;2023-01-25T02:53:36;101022.19;;;-0.61;100.00
5574;BME280;2563;52.242;7.956;2023-01-25T02:56:02;101020.69;;;-0.54;100.00
5574;BME280;2563;52.242;7.956;2023-01-25T02:58:27;101018.09;;;-0.57;100.00
5574;BME280;2563;52.242;7.956;2023-01-25T03:00:53;101017.06;;;-0.62;100.00
5574;BME280;2563;52.242;7.956;2023-01-25T03:03:20;101010.31;;;-0.63;100.00
5574;BME280;2563;52.242;7.956;2023-01-25T03:05:45;101012.00;;;-0.64;100.00
5574;BME280;2563;52.242;7.956;2023-01-25T03:08:10;101003.59;;;-0.63;100.00
5574;BME280;2563;52.242;7.956;2023-01-25T03:10:36;101007.75;;;-0.65;100.00
5574;BME280;2563;52.242;7.956;2023-01-25T03:13:01;100997.63;;;-0.65;100.00
5574;BME280;2563;52.242;7.956;2023-01-25T03:15:27;100998.59;;;-0.61;100.00
5574;BME280;2563;52.242;7.956;2023-01-25T03:17:52;100990.19;;;-0.60;100.00
5574;BME280;2563;52.242;7.956;2023-01-25T03:20:18;100988.41;;;-0.65;100.00
5574;BME280;2563;52.242;7.956;2023-01-25T03:22:43;100994.88;;;-0.73;100.00
5574;BME280;2563;52.242;7.956;2023-01-25T03:25:08;100986.41;;;-0.75;100.00
5574;BME280;2563;52.242;7.956;2023-01-25T03:27:34;100985.63;;;-0.72;100.00
5574;BME280;2563;52.242;7.956;2023-01-25T03:29:59;100981.34;;;-0.75;100.00
5574;BME280;2563;52.242;7.956;2023-01-25T03:32:25;100976.28;;;-0.75;100.00
5574;BME280;2563;52.242;7.956;2023-01-25T03:34:50;100967.00;;;-0.76;100.00
5574;BME280;2563;52.242;7.956;2023-01-25T03:37:16;100964.47;;;-0.76;100.00
5574;BME280;2563;52.242;7.956;2023-01-25T03:39:41;100962.63;;;-0.81;100.00
5574;BME280;2563;52.242;7.956;2023-01-25T03:42:06;100967.59;;;-0.84;100.00
5574;BME280;2563;52.242;7.956;2023-01-25T03:44:32;100952.56;;;-0.80;100.00
5574;BME280;2563;52.242;7.956;2023-01-25T03:46:57;100955.22;;;-0.75;100.00
5574;BME280;2563;52.242;7.956;2023-01-25T03:49:23;100952.75;;;-0.74;100.00
5574;BME280;2563;52.242;7.956;2023-01-25T03:51:48;100939.22;;;-0.76;100.00
5574;BME280;2563;52.242;7.956;2023-01-25T03:54:13;100935.78;;;-0.78;100.00
5574;BME280;2563;52.242;7.956;2023-01-25T03:56:39;100939.97;;;-0.78;100.00
5574;BME280;2563;52.242;7.956;2023-01-25T03:59:05;100937.59;;;-0.74;100.00
5574;BME280;2563;52.242;7.956;2023-01-25T04:01:31;100930.66;;;-0.79;100.00
5574;BME280;2563;52.242;7.956;2023-01-25T04:03:56;100922.25;;;-0.80;100.00
5574;BME280;2563;52.242;7.956;2023-01-25T04:06:21;100921.53;;;-0.76;100.00
5574;BME280;2563;52.242;7.956;2023-01-25T04:08:47;100918.91;;;-0.79;100.00
5574;BME280;2563;52.242;7.956;2023-01-25T04:11:12;100920.41;;;-0.86;100.00
5574;BME280;2563;52.242;7.956;2023-01-25T04:13:38;100916.91;;;-0.89;100.00
5574;BME280;2563;52.242;7.956;2023-01-25T04:16:05;100910.25;;;-0.87;100.00
5574;BME280;2563;52.242;7.956;2023-01-25T04:18:31;100912.78;;;-0.87;100.00
5574;BME280;2563;52.242;7.956;2023-01-25T04:20:56;100902.78;;;-0.82;100.00
5574;BME280;2563;52.242;7.956;2023-01-25T04:23:23;100892.09;;;-0.74;100.00
5574;BME280;2563;52.242;7.956;2023-01-25T04:25:59;100884.41;;;-0.77;100.00
5574;BME280;2563;52.242;7.956;2023-01-25T04:28:26;100872.53;;;-0.79;100.00
5574;BME280;2563;52.242;7.956;2023-01-25T04:30:54;100872.59;;;-0.78;100.00
5574;BME280;2563;52.242;7.956;2023-01-25T04:33:20;100865.09;;;-0.75;100.00
5574;BME280;2563;52.242;7.956;2023-01-25T04:35:46;100866.72;;;-0.77;100.00
5574;BME280;2563;52.242;7.956;2023-01-25T04:38:12;100869.13;;;-0.81;100.00
5574;BME280;2563;52.242;7.956;2023-01-25T04:40:37;100872.47;;;-0.82;100.00
5574;BME280;2563;52.242;7.956;2023-01-25T04:43:03;100864.97;;;-0.79;100.00
5574;BME280;2563;52.242;7.956;2023-01-25T04:45:31;100863.31;;;-0.79;100.00
5574;BME280;2563;52.242;7.956;2023-01-25T04:47:58;100853.22;;;-0.79;100.00
5574;BME280;2563;52.242;7.956;2023-01-25T04:50:24;100841.44;;;-0.77;100.00
5574;BME280;2563;52.242;7.956;2023-01-25T04:52:50;100838.13;;;-0.76;100.00
5574;BME280;2563;52.242;7.956;2023-01-25T04:55:15;100831.44;;;-0.74;100.00
5574;BME280;2563;52.242;7.956;2023-01-25T04:57:41;100830.56;;;-0.74;100.00
5574;BME280;2563;52.242;7.956;2023-01-25T05:00:07;100828.94;;;-0.72;100.00
5574;BME280;2563;52.242;7.956;2023-01-25T05:02:32;100819.59;;;-0.75;100.00
5574;BME280;2563;52.242;7.956;2023-01-25T05:04:58;100812.91;;;-0.73;100.00
5574;BME280;2563;52.242;7.956;2023-01-25T05:07:23;100818.03;;;-0.71;100.00
5574;BME280;2563;52.242;7.956;2023-01-25T05:09:48;100813.88;;;-0.68;100.00
5574;BME280;2563;52.242;7.956;2023-01-25T05:12:14;100812.91;;;-0.73;100.00
5574;BME280;2563;52.242;7.956;2023-01-25T05:14:39;100814.66;;;-0.72;100.00
5574;BME280;2563;52.242;7.956;2023-01-25T05:17:05;100809.59;;;-0.72;100.00
5574;BME280;2563;52.242;7.956;2023-01-25T05:19:32;100811.81;;;-0.82;100.00
5574;BME280;2563;52.242;7.956;2023-01-25T05:21:59;100806.91;;;-0.78;100.00
5574;BME280;2563;52.242;7.956;2023-01-25T05:24:26;100796.91;;;-0.73;100.00
5574;BME280;2563;52.242;7.956;2023-01-25T05:26:52;100790.91;;;-0.77;100.00
5574;BME280;2563;52.242;7.956;2023-01-25T05:29:35;100792.63;;;-0.76;100.00
5574;BME280;2563;52.242;7.956;2023-01-25T05:32:18;100780.88;;;-0.74;100.00
5574;BME280;2563;52.242;7.956;2023-01-25T05:34:44;100773.97;;;-0.81;100.00
5574;BME280;2563;52.242;7.956;2023-01-25T05:37:11;100768.16;;;-0.77;100.00
5574;BME280;2563;52.242;7.956;2023-01-25T05:39:37;100759.78;;;-0.74;100.00
5574;BME280;2563;52.242;7.956;2023-01-25T05:42:02;100757.38;;;-0.71;100.00
5574;BME280;2563;52.242;7.956;2023-01-25T05:44:28;100763.19;;;-0.74;100.00
5574;BME280;2563;52.242;7.956;2023-01-25T05:46:53;100754.00;;;-0.72;100.00
5574;BME280;2563;52.242;7.956;2023-01-25T05:49:19;100755.53;;;-0.77;100.00
5574;BME280;2563;52.242;7.956;2023-01-25T05:51:45;100750.41;;;-0.80;100.00
5574;BME280;2563;52.242;7.956;2023-01-25T05:54:13;100754.53;;;-0.83;100.00
5574;BME280;2563;52.242;7.956;2023-01-25T05:56:38;100744.38;;;-0.85;100.00
5574;BME280;2563;52.242;7.956;2023-01-25T05:59:04;100747.81;;;-0.83;100.00
5574;BME280;2563;52.242;7.956;2023-01-25T06:01:30;100728.63;;;-0.75;100.00
5574;BME280;2563;52.242;7.956;2023-01-25T06:03:56;100732.81;;;-0.75;100.00
5574;BME280;2563;52.242;7.956;2023-01-25T06:06:22;100733.69;;;-0.75;100.00
5574;BME280;2563;52.242;7.956;2023-01-25T06:08:47;100726.13;;;-0.73;100.00
5574;BME280;2563;52.242;7.956;2023-01-25T06:11:15;100732.88;;;-0.74;100.00
5574;BME280;2563;52.242;7.956;2023-01-25T06:13:41;100733.59;;;-0.78;100.00
5574;BME280;2563;52.242;7.956;2023-01-25T06:16:07;100732.09;;;-0.71;100.00
5574;BME280;2563;52.242;7.956;2023-01-25T06:18:33;100714.41;;;-0.70;100.00
5574;BME280;2563;52.242;7.956;2023-01-25T06:21:00;100710.25;;;-0.68;100.00
5574;BME280;2563;52.242;7.956;2023-01-25T06:23:26;100714.34;;;-0.73;100.00
5574;BME280;2563;52.242;7.956;2023-01-25T06:25:52;100704.28;;;-0.71;100.00
5574;BME280;2563;52.242;7.956;2023-01-25T06:28:20;100704.28;;;-0.71;100.00
5574;BME280;2563;52.242;7.956;2023-01-25T06:30:45;100694.81;;;-0.80;100.00
5574;BME280;2563;52.242;7.956;2023-01-25T06:33:11;100703.22;;;-0.81;100.00
5574;BME280;2563;52.242;7.956;2023-01-25T06:35:36;100700.63;;;-0.82;100.00
5574;BME280;2563;52.242;7.956;2023-01-25T06:38:04;100691.47;;;-0.79;100.00
5574;BME280;2563;52.242;7.956;2023-01-25T06:40:30;100687.34;;;-0.75;100.00
5574;BME280;2563;52.242;7.956;2023-01-25T06:43:04;100682.22;;;-0.78;100.00
5574;BME280;2563;52.242;7.956;2023-01-25T06:45:30;100675.44;;;-0.79;100.00
5574;BME280;2563;52.242;7.956;2023-01-25T06:47:55;100672.91;;;-0.79;100.00
5574;BME280;2563;52.242;7.956;2023-01-25T06:50:21;100671.25;;;-0.79;100.00
5574;BME280;2563;52.242;7.956;2023-01-25T06:52:55;100662.78;;;-0.81;100.00
5574;BME280;2563;52.242;7.956;2023-01-25T06:55:21;100656.09;;;-0.79;100.00
5574;BME280;2563;52.242;7.956;2023-01-25T06:57:47;100651.91;;;-0.78;100.00
5574;BME280;2563;52.242;7.956;2023-01-25T07:00:14;100647.84;;;-0.72;100.00
5574;BME280;2563;52.242;7.956;2023-01-25T07:02:39;100637.78;;;-0.69;100.00
5574;BME280;2563;52.242;7.956;2023-01-25T07:05:05;100637.72;;;-0.72;100.00
5574;BME280;2563;52.242;7.956;2023-01-25T07:07:31;100643.38;;;-0.82;100.00
5574;BME280;2563;52.242;7.956;2023-01-25T07:09:56;100639.22;;;-0.80;100.00
5574;BME280;2563;52.242;7.956;2023-01-25T07:12:24;100630.91;;;-0.76;100.00
5574;BME280;2563;52.242;7.956;2023-01-25T07:14:50;100643.34;;;-0.83;100.00
5574;BME280;2563;52.242;7.956;2023-01-25T07:17:15;100639.16;;;-0.83;100.00
5574;BME280;2563;52.242;7.956;2023-01-25T07:19:40;100640.00;;;-0.82;100.00
5574;BME280;2563;52.242;7.956;2023-01-25T07:22:06;100633.16;;;-0.87;100.00
5574;BME280;2563;52.242;7.956;2023-01-25T07:24:31;100633.19;;;-0.85;100.00
5574;BME280;2563;52.242;7.956;2023-01-25T07:26:57;100617.31;;;-0.79;100.00
5574;BME280;2563;52.242;7.956;2023-01-25T07:29:22;100613.94;;;-0.80;100.00
5574;BME280;2563;52.242;7.956;2023-01-25T07:31:48;100609.63;;;-0.86;100.00
5574;BME280;2563;52.242;7.956;2023-01-25T07:34:13;100615.50;;;-0.85;100.00
5574;BME280;2563;52.242;7.956;2023-01-25T07:36:39;100606.16;;;-0.89;100.00
5574;BME280;2563;52.242;7.956;2023-01-25T07:39:05;100607.81;;;-0.90;100.00
5574;BME280;2563;52.242;7.956;2023-01-25T07:41:33;100591.88;;;-0.87;100.00
5574;BME280;2563;52.242;7.956;2023-01-25T07:43:58;100594.44;;;-0.86;100.00
5574;BME280;2563;52.242;7.956;2023-01-25T07:46:24;100590.09;;;-0.91;100.00
5574;BME280;2563;52.242;7.956;2023-01-25T07:48:51;100583.50;;;-0.86;100.00
5574;BME280;2563;52.242;7.956;2023-01-25T07:51:19;100569.25;;;-0.82;100.00
5574;BME280;2563;52.242;7.956;2023-01-25T07:53:59;100566.75;;;-0.81;100.00
5574;BME280;2563;52.242;7.956;2023-01-25T07:56:27;98994.56;;;-0.77;100.00
5574;BME280;2563;52.242;7.956;2023-01-25T07:58:54;98710.81;;;-0.73;100.00
5574;BME280;2563;52.242;7.956;2023-01-25T08:01:22;98610.63;;;-0.71;100.00
5574;BME280;2563;52.242;7.956;2023-01-25T08:03:48;98614.06;;;-0.79;100.00
5574;BME280;2563;52.242;7.956;2023-01-25T08:06:14;98641.00;;;-0.80;100.00
5574;BME280;2563;52.242;7.956;2023-01-25T08:08:45;98641.88;;;-0.84;100.00
5574;BME280;2563;52.242;7.956;2023-01-25T08:11:21;98650.28;;;-0.79;100.00
5574;BME280;2563;52.242;7.956;2023-01-25T08:13:47;98659.50;;;-0.79;100.00
5574;BME280;2563;52.242;7.956;2023-01-25T08:16:22;98683.13;;;-0.82;100.00
5574;BME280;2563;52.242;7.956;2023-01-25T08:18:49;98699.09;;;-0.80;100.00
5574;BME280;2563;52.242;7.956;2023-01-25T08:21:16;98709.19;;;-0.80;100.00
5574;BME280;2563;52.242;7.956;2023-01-25T08:23:41;98716.78;;;-0.78;100.00
5574;BME280;2563;52.242;7.956;2023-01-25T08:26:09;98728.56;;;-0.79;100.00
5574;BME280;2563;52.242;7.956;2023-01-25T08:28:35;98739.50;;;-0.80;100.00
5574;BME280;2563;52.242;7.956;2023-01-25T08:31:05;98757.25;;;-0.86;100.00
5574;BME280;2563;52.242;7.956;2023-01-25T08:33:31;98765.72;;;-0.93;100.00
5574;BME280;2563;52.242;7.956;2023-01-25T08:35:56;98767.38;;;-0.91;100.00
5574;BME280;2563;52.242;7.956;2023-01-25T08:38:22;98775.78;;;-0.92;100.00
5574;BME280;2563;52.242;7.956;2023-01-25T08:40:47;98786.75;;;-0.94;100.00
5574;BME280;2563;52.242;7.956;2023-01-25T08:43:12;98786.69;;;-0.85;100.00
5574;BME280;2563;52.242;7.956;2023-01-25T08:45:38;98790.91;;;-0.87;100.00
5574;BME280;2563;52.242;7.956;2023-01-25T08:48:03;98789.22;;;-0.83;100.00
5574;BME280;2563;52.242;7.956;2023-01-25T08:50:29;98791.75;;;-0.83;100.00
5574;BME280;2563;52.242;7.956;2023-01-25T08:52:54;98796.75;;;-0.82;100.00
5574;BME280;2563;52.242;7.956;2023-01-25T08:55:19;98797.59;;;-0.81;100.00
5574;BME280;2563;52.242;7.956;2023-01-25T08:57:45;98805.19;;;-0.83;100.00
5574;BME280;2563;52.242;7.956;2023-01-25T09:00:11;98805.19;;;-0.84;100.00
5574;BME280;2563;52.242;7.956;2023-01-25T09:02:36;98806.91;;;-0.88;100.00
5574;BME280;2563;52.242;7.956;2023-01-25T09:05:01;98808.59;;;-0.90;100.00
5574;BME280;2563;52.242;7.956;2023-01-25T09:07:27;98811.94;;;-0.85;100.00
5574;BME280;2563;52.242;7.956;2023-01-25T09:09:52;98810.25;;;-0.83;100.00
5574;BME280;2563;52.242;7.956;2023-01-25T09:12:17;98809.41;;;-0.83;100.00
5574;BME280;2563;52.242;7.956;2023-01-25T09:14:43;98816.09;;;-0.78;100.00
5574;BME280;2563;52.242;7.956;2023-01-25T09:17:08;98816.94;;;-0.76;100.00
5574;BME280;2563;52.242;7.956;2023-01-25T09:19:33;98821.97;;;-0.73;100.00
5574;BME280;2563;52.242;7.956;2023-01-25T09:21:59;98820.28;;;-0.74;100.00
5574;BME280;2563;52.242;7.956;2023-01-25T09:24:24;98827.91;;;-0.80;100.00
5574;BME280;2563;52.242;7.956;2023-01-25T09:26:49;98832.16;;;-0.88;100.00
5574;BME280;2563;52.242;7.956;2023-01-25T09:29:15;98835.53;;;-0.86;100.00
5574;BME280;2563;52.242;7.956;2023-01-25T09:31:40;98838.84;;;-0.84;100.00
5574;BME280;2563;52.242;7.956;2023-01-25T09:34:10;98830.41;;;-0.80;100.00
5574;BME280;2563;52.242;7.956;2023-01-25T09:36:36;98834.66;;;-0.79;100.00
5574;BME280;2563;52.242;7.956;2023-01-25T09:39:02;98833.75;;;-0.72;100.00
5574;BME280;2563;52.242;7.956;2023-01-25T09:46:40;98824.44;;;-0.63;100.00
5574;BME280;2563;52.242;7.956;2023-01-25T09:51:52;98843.84;;;-0.72;100.00
5574;BME280;2563;52.242;7.956;2023-01-25T09:54:24;98851.47;;;-0.78;100.00
5574;BME280;2563;52.242;7.956;2023-01-25T09:56:52;98848.88;;;-0.70;100.00
5574;BME280;2563;52.242;7.956;2023-01-25T09:59:22;98851.38;;;-0.66;100.00
5574;BME280;2563;52.242;7.956;2023-01-25T10:01:56;98858.13;;;-0.68;100.00
5574;BME280;2563;52.242;7.956;2023-01-25T10:04:34;98857.25;;;-0.63;100.00
5574;BME280;2563;52.242;7.956;2023-01-25T10:07:25;98852.19;;;-0.57;100.00
5574;BME280;2563;52.242;7.956;2023-01-25T10:10:05;98861.53;;;-0.75;100.00
5574;BME280;2563;52.242;7.956;2023-01-25T10:12:36;98869.09;;;-0.69;100.00
5574;BME280;2563;52.242;7.956;2023-01-25T10:15:16;98869.13;;;-0.72;100.00
5574;BME280;2563;52.242;7.956;2023-01-25T10:17:42;98869.91;;;-0.70;100.00
5574;BME280;2563;52.242;7.956;2023-01-25T10:22:37;98885.97;;;-0.80;100.00
5574;BME280;2563;52.242;7.956;2023-01-25T10:25:27;98891.91;;;-0.81;100.00
5574;BME280;2563;52.242;7.956;2023-01-25T10:28:04;98897.78;;;-0.79;100.00
5574;BME280;2563;52.242;7.956;2023-01-25T10:33:18;98891.00;;;-0.71;100.00
5574;BME280;2563;52.242;7.956;2023-01-25T10:35:47;98902.78;;;-0.71;100.00
5574;BME280;2563;52.242;7.956;2023-01-25T10:38:38;98896.03;;;-0.71;100.00
5574;BME280;2563;52.242;7.956;2023-01-25T10:41:11;98891.78;;;-0.61;100.00
5574;BME280;2563;52.242;7.956;2023-01-25T10:43:39;98900.16;;;-0.56;100.00
5574;BME280;2563;52.242;7.956;2023-01-25T10:46:18;98894.25;;;-0.50;100.00
5574;BME280;2563;52.242;7.956;2023-01-25T10:48:44;98913.63;;;-0.52;100.00
5574;BME280;2563;52.242;7.956;2023-01-25T10:51:27;98914.44;;;-0.47;100.00
5574;BME280;2563;52.242;7.956;2023-01-25T10:53:58;98912.75;;;-0.45;100.00
5574;BME280;2563;52.242;7.956;2023-01-25T10:56:26;98911.06;;;-0.46;100.00
5574;BME280;2563;52.242;7.956;2023-01-25T10:59:05;98919.53;;;-0.50;100.00
5574;BME280;2563;52.242;7.956;2023-01-25T11:01:34;98929.56;;;-0.44;100.00
5574;BME280;2563;52.242;7.956;2023-01-25T11:04:00;98930.44;;;-0.47;100.00
5574;BME280;2563;52.242;7.956;2023-01-25T11:06:35;98936.34;;;-0.49;100.00
5574;BME280;2563;52.242;7.956;2023-01-25T11:09:34;98926.25;;;-0.55;100.00
5574;BME280;2563;52.242;7.956;2023-01-25T11:12:17;98942.31;;;-0.66;100.00
5574;BME280;2563;52.242;7.956;2023-01-25T11:14:43;98950.75;;;-0.68;100.00
5574;BME280;2563;52.242;7.956;2023-01-25T11:17:22;98945.66;;;-0.59;100.00
5574;BME280;2563;52.242;7.956;2023-01-25T11:20:04;98952.38;;;-0.58;100.00
5574;BME280;2563;52.242;7.956;2023-01-25T11:22:31;98962.53;;;-0.59;100.00
5574;BME280;2563;52.242;7.956;2023-01-25T11:24:56;98959.97;;;-0.56;100.00
5574;BME280;2563;52.242;7.956;2023-01-25T11:27:24;98948.13;;;-0.47;100.00
5574;BME280;2563;52.242;7.956;2023-01-25T11:30:11;98941.38;;;-0.43;100.00
5574;BME280;2563;52.242;7.956;2023-01-25T11:32:40;98946.44;;;-0.43;100.00
5574;BME280;2563;52.242;7.956;2023-01-25T11:35:20;98947.25;;;-0.43;100.00
5574;BME280;2563;52.242;7.956;2023-01-25T11:51:42;98978.47;;;-0.51;100.00
5574;BME280;2563;52.242;7.956;2023-01-25T11:54:41;98996.25;;;-0.67;100.00
5574;BME280;2563;52.242;7.956;2023-01-25T12:12:54;99021.41;;;-0.45;100.00
5574;BME280;2563;52.242;7.956;2023-01-25T12:15:42;99032.38;;;-0.49;100.00
5574;BME280;2563;52.242;7.956;2023-01-25T12:31:57;99053.44;;;-0.58;100.00
5574;BME280;2563;52.242;7.956;2023-01-25T12:34:34;99055.16;;;-0.57;100.00
5574;BME280;2563;52.242;7.956;2023-01-25T12:37:12;99045.88;;;-0.50;100.00
5574;BME280;2563;52.242;7.956;2023-01-25T12:39:47;99052.59;;;-0.48;100.00
5574;BME280;2563;52.242;7.956;2023-01-25T12:42:21;99061.88;;;-0.56;100.00
5574;BME280;2563;52.242;7.956;2023-01-25T12:44:57;99057.66;;;-0.55;100.00
5574;BME280;2563;52.242;7.956;2023-01-25T12:47:31;99068.59;;;-0.52;100.00
5574;BME280;2563;52.242;7.956;2023-01-25T12:50:22;99090.53;;;-0.61;100.00
5574;BME280;2563;52.242;7.956;2023-01-25T12:52:48;99088.81;;;-0.56;100.00
5574;BME280;2563;52.242;7.956;2023-01-25T12:55:16;99094.75;;;-0.63;100.00
5574;BME280;2563;52.242;7.956;2023-01-25T12:58:06;99082.91;;;-0.51;100.00
5574;BME280;2563;52.242;7.956;2023-01-25T13:01:08;99073.63;;;-0.49;100.00
5574;BME280;2563;52.242;7.956;2023-01-25T13:06:46;99083.72;;;-0.44;100.00
5574;BME280;2563;52.242;7.956;2023-01-25T13:11:46;99126.75;;;-0.64;100.00
5574;BME280;2563;52.242;7.956;2023-01-25T13:16:50;99140.22;;;-0.59;100.00
5574;BME280;2563;52.242;7.956;2023-01-25T13:21:55;99150.31;;;-0.51;100.00
5574;BME280;2563;52.242;7.956;2023-01-25T13:24:31;99158.72;;;-0.58;100.00
5574;BME280;2563;52.242;7.956;2023-01-25T13:26:59;99162.13;;;-0.66;100.00
5574;BME280;2563;52.242;7.956;2023-01-25T13:32:02;99178.97;;;-0.65;100.00
5574;BME280;2563;52.242;7.956;2023-01-25T13:37:21;99161.25;;;-0.63;100.00
5574;BME280;2563;52.242;7.956;2023-01-25T13:39:52;99165.50;;;-0.57;100.00
5574;BME280;2563;52.242;7.956;2023-01-25T13:42:25;99166.31;;;-0.54;100.00
5574;BME280;2563;52.242;7.956;2023-01-25T13:44:57;99172.22;;;-0.69;100.00
5574;BME280;2563;52.242;7.956;2023-01-25T13:47:27;99196.66;;;-0.69;100.00
5574;BME280;2563;52.242;7.956;2023-01-25T13:52:28;99209.28;;;-0.86;100.00
5574;BME280;2563;52.242;7.956;2023-01-25T13:54:56;99215.19;;;-0.82;100.00
5574;BME280;2563;52.242;7.956;2023-01-25T13:57:31;99218.53;;;-0.90;100.00
5574;BME280;2563;52.242;7.956;2023-01-25T13:59:58;99224.44;;;-0.83;100.00
5574;BME280;2563;52.242;7.956;2023-01-25T14:02:24;99219.38;;;-0.80;100.00
5574;BME280;2563;52.242;7.956;2023-01-25T14:04:50;99216.00;;;-0.82;100.00
5574;BME280;2563;52.242;7.956;2023-01-25T14:07:18;99221.06;;;-0.88;100.00
5574;BME280;2563;52.242;7.956;2023-01-25T14:09:46;99227.81;;;-0.90;100.00
5574;BME280;2563;52.242;7.956;2023-01-25T14:12:25;99221.91;;;-0.81;100.00
5574;BME280;2563;52.242;7.956;2023-01-25T14:14:54;99217.69;;;-0.78;100.00
5574;BME280;2563;52.242;7.956;2023-01-25T14:17:22;99212.66;;;-0.72;100.00
5574;BME280;2563;52.242;7.956;2023-01-25T14:19:49;99225.28;;;-0.75;100.00
5574;BME280;2563;52.242;7.956;2023-01-25T14:22:29;99234.53;;;-0.80;100.00
5574;BME280;2563;52.242;7.956;2023-01-25T14:25:29;99230.34;;;-0.78;100.00
5574;BME280;2563;52.242;7.956;2023-01-25T14:27:56;99231.16;;;-0.82;100.00
5574;BME280;2563;52.242;7.956;2023-01-25T14:30:24;99238.75;;;-0.74;100.00
5574;BME280;2563;52.242;7.956;2023-01-25T14:32:51;99241.28;;;-0.85;100.00
5574;BME280;2563;52.242;7.956;2023-01-25T14:37:59;99241.28;;;-0.97;100.00
5574;BME280;2563;52.242;7.956;2023-01-25T14:40:27;99250.53;;;-0.93;100.00